Alpine, TX

3:10 AM CDT on July 23, 2014 (GMT -0500)
Alpine Public Library (KTXALPIN8) Elev 4475 ft | 30.36 °N, 103.67 °W | Change Station

Current weather conditions updated 3 minutes ago

Clear
Clear
71.3 °F
Feels Like 75 °F
N
1.0
Wind Variable Wind from South
Gusts 2.0 mph

Today is forecast to be Much Cooler than yesterday.

Today
High -- | Low -- °F
--% Chance of Precip.
Yesterday
High -- | Low -- °F
Precip. -- in
7:07 AM 8:54 PM
Waning Crescent, 12% visible
Pressure 30.32 in
Visibility 10.0 miles
Clouds Clear
Heat Index 75 °F
Dew Point 59 °F
Humidity 66%
Rainfall 0.00 in
Snow Depth Not available.
UV 0 out of 12
Pollen 4.80 out of 12
Air Quality Not available.
Flu Activity Not available.
METAR KE38 230755Z AUTO 20003KT 10SM CLR 21/15 A3032 RMK AO2 T02140152

More Conditions Fewer Conditions

Pressure 30.32 in
Visibility 10.0 miles
Clouds Clear
Heat Index 75 °F
Dew Point 59 °F
Humidity 66%
Rainfall 0.00 in
Snow Depth Not available.
UV 0 out of 12
Pollen 4.80 out of 12
Air Quality Not available.
Flu Activity Not available.
METAR KE38 230755Z AUTO 20003KT 10SM CLR 21/15 A3032 RMK AO2 T02140152

More Conditions Fewer Conditions

10-Day Weather Forecast

Almanac

Astronomy

Jul. 23, 2014 Rise Set
Actual Time 7:07 AM CDT 8:54 PM CDT
Civil Twilight 6:41 AM CDT 9:20 PM CDT
Nautical Twilight 6:08 AM CDT 9:52 PM CDT
Astronomical Twilight 5:35 AM CDT 10:26 PM CDT
Moon 4:26 AM CDT 6:26 PM CDT
Length of Visible Light 14h 39m
Length of Day
13h 46m
Tomorrow will be 1m 10s shorter.
Waning Crescent, 12% of the Moon is Illuminated
Today
Waning Crescent
Jul 26
New
Aug 3
First Quarter
Aug 10
Full
Aug 17
Last Quarter

Today's Extremes

State Highs State Lows

Community

WunderPhotos

Upload Photos

1,736,529 photos uploaded!

Nearby

Snow Depth

Station Depth Elevation
No new snow has been reported.

Earthquake Activity

City Distance Mag. Time & Date
No recent earthquake activity has been reported nearby.
Minimum magnitude displayed is 2.5.

Coastal Water Temperatures

Place Temperature
No Stations Reporting

Nearby Weather Stations

Station Location Temp. Heat Index Dew Point Humidity Wind Precip. Elev Updated Type
Alpine Public Library, Alpine, TX 71.3 °F 75 °F 59 °F 66% South  at  1.0 mph 0.00 in / hr 4475 ft 3:07 AM CDT Normal
Alpine, TX 72.6 °F 76 °F 59 °F 63% SSE  at  0.0 mph 0.00 in / hr 4550 ft 2:55 AM CDT Normal
MesoWest ALPINE , Alpine, TX 73 °F 71 °F - - SE  at  6 mph 0.00 in / hr 4508 ft 2:05 AM CDT MADIS
MesoWest ALPINJ , Alpine, TX 69 °F - - - North  at  - 0.00 in / hr 4885 ft 1:35 AM CDT MADIS
MesoWest MARFA , Marfa, TX 76 °F 74 °F - - SE  at  6 mph 0.00 in / hr 4832 ft 11:20 PM CDT MADIS
RAWS FORT DAVIS TX, Fort Davis, TX 72 °F 76 °F 58 °F 61% West  at  1 mph 0.00 in / hr 4764 ft 2:03 AM CDT MADIS
Marfa, Marfa, TX 70.9 °F 75 °F 60 °F 68% NW  at  0.7 mph 0.00 in / hr 4664 ft 3:10 AM CDT Rapid Fire
MesoWest LENOX , Marathon, TX 75 °F 73 °F - - North  at  2 mph 0.00 in / hr 4149 ft 12:35 AM CDT MADIS

Show More Stations Show Fewer Stations